createdAt,value
2019-05-23T00:02:54.187Z,14.90
2019-05-23T00:05:54.096Z,14.20
2019-05-23T00:08:43.883Z,14.23
2019-05-23T00:11:33.249Z,14.38
2019-05-23T00:14:33.942Z,14.47
2019-05-23T00:17:05.756Z,13.85
2019-05-23T00:19:37.495Z,14.75
2019-05-23T00:22:11.561Z,14.13
2019-05-23T00:24:43.592Z,14.23
2019-05-23T00:27:16.659Z,13.55
2019-05-23T00:29:49.645Z,14.45
2019-05-23T00:32:41.168Z,14.23
2019-05-23T00:35:14.174Z,14.63
2019-05-23T00:37:46.731Z,13.75
2019-05-23T00:40:33.647Z,14.65
2019-05-23T00:43:05.814Z,13.03
2019-05-23T00:45:38.492Z,13.65
2019-05-23T00:48:12.558Z,14.28
2019-05-23T00:50:45.178Z,14.07
2019-05-23T00:53:17.857Z,13.03
2019-05-23T00:55:49.517Z,13.85
2019-05-23T00:58:23.613Z,14.47
2019-05-23T01:00:56.821Z,15.58
2019-05-23T01:03:30.315Z,13.45
2019-05-23T01:06:02.379Z,15.90
2019-05-23T01:08:35.263Z,14.28
2019-05-23T01:11:07.210Z,14.38
2019-05-23T01:13:40.424Z,16.45
2019-05-23T01:16:12.282Z,14.58
2019-05-23T01:18:43.833Z,15.70
2019-05-23T01:21:33.920Z,14.93
2019-05-23T01:24:16.428Z,16.27
2019-05-23T01:26:49.931Z,14.28
2019-05-23T01:29:22.608Z,13.95
2019-05-23T01:31:55.607Z,13.30
2019-05-23T01:34:27.663Z,13.70
2019-05-23T01:36:59.309Z,12.13
2019-05-23T01:39:31.182Z,13.22
2019-05-23T01:42:03.141Z,13.22
2019-05-23T01:44:35.649Z,12.98
2019-05-23T01:47:09.207Z,11.75
2019-05-23T01:49:41.681Z,13.08
2019-05-23T01:52:13.851Z,12.78
2019-05-23T01:54:45.305Z,15.78
2019-05-23T01:57:17.570Z,13.38
2019-05-23T02:00:07.846Z,16.93
2019-05-23T02:02:23.340Z,14.83
2019-05-23T02:04:55.709Z,14.40
2019-05-23T02:07:28.387Z,12.85
2019-05-23T02:10:00.668Z,14.73
2019-05-23T02:12:34.166Z,13.40
2019-05-23T02:15:09.566Z,15.28
2019-05-23T02:17:44.322Z,14.75
2019-05-23T02:20:19.046Z,14.80
2019-05-23T02:22:52.244Z,15.05
2019-05-23T02:25:25.968Z,14.35
2019-05-23T02:28:08.974Z,15.38
2019-05-23T02:30:41.543Z,23.60
2019-05-23T02:33:13.918Z,14.95
2019-05-23T02:35:46.185Z,15.38
2019-05-23T02:38:22.248Z,15.40
2019-05-23T02:40:56.057Z,15.48
2019-05-23T02:43:29.339Z,14.75
2019-05-23T02:46:18.946Z,16.67
2019-05-23T02:48:52.211Z,14.10
2019-05-23T02:51:26.668Z,14.68
2019-05-23T02:53:58.234Z,17.52
2019-05-23T02:56:31.679Z,19.27
2019-05-23T02:59:15.878Z,19.45
2019-05-23T03:02:03.926Z,24.27
2019-05-23T03:04:38.954Z,23.32
2019-05-23T03:07:11.795Z,21.17
2019-05-23T03:09:43.670Z,19.37
2019-05-23T03:12:17.252Z,19.73
2019-05-23T03:14:49.437Z,17.80
2019-05-23T03:17:21.414Z,16.85
2019-05-23T03:19:54.682Z,14.90
2019-05-23T03:22:31.196Z,15.03
2019-05-23T03:25:06.193Z,14.55
2019-05-23T03:27:40.903Z,14.63
2019-05-23T03:30:22.993Z,19.55
2019-05-23T03:32:56.231Z,15.48
2019-05-23T03:35:29.833Z,14.98
2019-05-23T03:38:03.293Z,15.55
2019-05-23T03:40:35.527Z,15.88
2019-05-23T03:43:08.962Z,15.98
2019-05-23T03:45:43.464Z,15.28
2019-05-23T03:48:16.630Z,13.68
2019-05-23T03:50:49.194Z,13.55
2019-05-23T03:53:22.031Z,12.23
2019-05-23T03:55:54.613Z,10.50
2019-05-23T03:58:30.255Z,11.15
2019-05-23T04:01:03.559Z,10.53
2019-05-23T04:03:39.703Z,10.55
2019-05-23T04:06:10.035Z,9.95
2019-05-23T04:08:42.101Z,10.13
2019-05-23T04:11:14.369Z,11.28
2019-05-23T04:13:46.843Z,9.90
2019-05-23T04:16:19.992Z,10.00
2019-05-23T04:18:51.797Z,12.00
2019-05-23T04:21:27.762Z,11.08
2019-05-23T04:23:59.511Z,11.50
2019-05-23T04:26:31.370Z,12.47
2019-05-23T04:29:03.231Z,11.22
2019-05-23T04:31:35.330Z,10.28
2019-05-23T04:34:07.157Z,11.48
2019-05-23T04:36:38.806Z,13.18
2019-05-23T04:39:11.083Z,13.90
2019-05-23T04:41:43.258Z,12.75
2019-05-23T04:44:17.073Z,14.00
2019-05-23T04:46:50.976Z,14.43
2019-05-23T04:49:24.044Z,14.50
2019-05-23T04:51:56.438Z,14.47
2019-05-23T04:54:28.287Z,14.80
2019-05-23T04:57:01.555Z,16.27
2019-05-23T04:59:33.642Z,13.18
2019-05-23T05:02:23.073Z,13.40
2019-05-23T05:04:40.570Z,12.30
2019-05-23T05:07:12.121Z,11.25
2019-05-23T05:09:43.678Z,11.43
2019-05-23T05:12:15.923Z,10.30
2019-05-23T05:14:49.202Z,16.60
2019-05-23T05:17:20.709Z,12.28
2019-05-23T05:19:52.278Z,12.65
2019-05-23T05:22:24.050Z,14.40
2019-05-23T05:24:55.950Z,20.20
2019-05-23T05:27:28.304Z,22.48
2019-05-23T05:30:05.480Z,19.87
2019-05-23T05:32:45.418Z,16.55
2019-05-23T05:35:13.857Z,15.40
2019-05-23T05:37:46.862Z,14.38
2019-05-23T05:40:24.537Z,12.13
2019-05-23T05:42:55.908Z,12.63
2019-05-23T05:45:27.798Z,15.63
2019-05-23T05:47:59.188Z,13.40
2019-05-23T05:50:31.269Z,20.12
2019-05-23T05:53:02.877Z,15.63
2019-05-23T05:55:34.263Z,17.25
2019-05-23T05:58:05.644Z,19.92
2019-05-23T06:00:47.449Z,19.25
2019-05-23T06:03:19.321Z,18.67
2019-05-23T06:05:52.815Z,18.65
2019-05-23T06:08:26.549Z,18.98
2019-05-23T06:10:58.582Z,18.42
2019-05-23T06:13:29.888Z,14.78
2019-05-23T06:16:01.164Z,14.87
2019-05-23T06:18:33.252Z,10.93
2019-05-23T06:21:05.227Z,8.78
2019-05-23T06:23:36.713Z,7.30
2019-05-23T06:26:08.266Z,8.05
2019-05-23T06:28:40.519Z,7.67
2019-05-23T06:31:12.188Z,11.57
2019-05-23T06:33:44.707Z,8.18
2019-05-23T06:36:16.564Z,7.40
2019-05-23T06:38:48.266Z,7.35
2019-05-23T06:41:25.519Z,8.20
2019-05-23T06:43:58.286Z,7.78
2019-05-23T06:46:31.087Z,8.03
2019-05-23T06:49:03.709Z,8.78
2019-05-23T06:51:35.201Z,8.55
2019-05-23T06:54:07.541Z,8.73
2019-05-23T06:56:38.956Z,8.83
2019-05-23T06:59:10.354Z,7.28
2019-05-23T07:01:41.803Z,7.25
2019-05-23T07:04:13.532Z,7.40
2019-05-23T07:06:45.058Z,8.58
2019-05-23T07:09:17.510Z,7.67
2019-05-23T07:11:48.768Z,7.30
2019-05-23T07:14:26.052Z,7.85
2019-05-23T07:17:03.275Z,6.62
2019-05-23T07:19:36.522Z,7.67
2019-05-23T07:22:09.530Z,7.37
2019-05-23T07:24:56.855Z,8.28
2019-05-23T07:27:13.927Z,8.68
2019-05-23T07:29:45.604Z,8.08
2019-05-23T07:32:30.356Z,8.33
2019-05-23T07:35:01.251Z,7.75
2019-05-23T07:37:33.853Z,7.15
2019-05-23T07:40:06.122Z,6.15
2019-05-23T07:42:38.005Z,5.85
2019-05-23T07:45:10.984Z,5.87
2019-05-23T07:47:43.883Z,4.80
2019-05-23T07:50:15.308Z,5.62
2019-05-23T07:52:46.907Z,5.58
2019-05-23T07:55:21.685Z,5.90
2019-05-23T07:57:55.300Z,5.53
2019-05-23T08:00:34.779Z,6.28
2019-05-23T08:03:06.804Z,6.00
2019-05-23T08:05:38.698Z,5.80
2019-05-23T08:08:11.649Z,6.15
2019-05-23T08:10:43.858Z,5.85
2019-05-23T08:13:16.968Z,5.55
2019-05-23T08:15:48.955Z,5.95
2019-05-23T08:18:20.932Z,5.62
2019-05-23T08:20:52.650Z,5.40
2019-05-23T08:23:25.047Z,5.42
2019-05-23T08:25:57.688Z,5.97
2019-05-23T08:28:29.276Z,5.30
2019-05-23T08:31:00.622Z,4.62
2019-05-23T08:33:34.634Z,4.47
2019-05-23T08:36:09.591Z,4.75
2019-05-23T08:38:40.923Z,4.08
2019-05-23T08:41:15.862Z,4.58
2019-05-23T08:43:48.861Z,3.52
2019-05-23T08:46:20.475Z,3.67
2019-05-23T08:48:52.432Z,3.47
2019-05-23T08:51:23.855Z,3.15
2019-05-23T08:53:55.575Z,3.08
2019-05-23T08:56:28.063Z,3.35
2019-05-23T08:58:59.669Z,3.35
2019-05-23T09:01:31.123Z,3.10
2019-05-23T09:04:04.201Z,3.33
2019-05-23T09:06:41.769Z,5.12
2019-05-23T09:09:28.605Z,4.00
2019-05-23T09:11:45.446Z,4.22
2019-05-23T09:14:16.956Z,3.87
2019-05-23T09:16:49.755Z,3.60
2019-05-23T09:19:21.368Z,3.52
2019-05-23T09:21:57.555Z,3.58
2019-05-23T09:24:27.303Z,3.50
2019-05-23T09:26:58.723Z,3.80
2019-05-23T09:29:32.995Z,3.80
2019-05-23T09:32:05.040Z,4.05
2019-05-23T09:34:36.948Z,4.15
2019-05-23T09:37:24.157Z,5.58
2019-05-23T09:39:57.744Z,4.87
2019-05-23T09:42:28.943Z,4.10
2019-05-23T09:45:01.913Z,5.67
2019-05-23T09:47:34.726Z,4.95
2019-05-23T09:50:11.964Z,6.12
2019-05-23T09:52:43.584Z,6.92
2019-05-23T09:55:17.583Z,6.83
2019-05-23T09:57:51.041Z,7.85
2019-05-23T10:00:24.170Z,8.98
2019-05-23T10:02:56.020Z,8.40
2019-05-23T10:05:42.195Z,8.68
2019-05-23T10:08:03.834Z,7.90
2019-05-23T10:10:35.008Z,7.20
2019-05-23T10:13:07.470Z,7.85
2019-05-23T10:15:40.949Z,8.33
2019-05-23T10:18:14.041Z,9.00
2019-05-23T10:20:45.716Z,9.13
2019-05-23T10:23:17.788Z,9.48
2019-05-23T10:25:49.395Z,8.93
2019-05-23T10:28:21.560Z,10.82
2019-05-23T10:30:52.952Z,10.68
2019-05-23T10:33:24.894Z,10.88
2019-05-23T10:36:00.956Z,12.00
2019-05-23T10:38:31.239Z,16.10
2019-05-23T10:41:02.921Z,15.35
2019-05-23T10:43:34.564Z,16.57
2019-05-23T10:46:06.109Z,16.60
2019-05-23T10:48:37.851Z,14.63
2019-05-23T10:51:09.357Z,14.45
2019-05-23T10:53:40.529Z,12.10
2019-05-23T10:56:12.351Z,12.55
2019-05-23T10:58:43.541Z,11.15
2019-05-23T11:01:25.932Z,8.23
2019-05-23T11:04:04.018Z,8.40
2019-05-23T11:06:52.863Z,7.70
2019-05-23T11:09:37.405Z,8.03
2019-05-23T11:11:58.428Z,8.00
2019-05-23T11:14:32.654Z,6.65
2019-05-23T11:17:06.868Z,6.12
2019-05-23T11:19:38.606Z,6.95
2019-05-23T11:22:11.308Z,7.45
2019-05-23T11:24:42.847Z,5.28
2019-05-23T11:27:14.660Z,5.67
2019-05-23T11:29:46.135Z,8.20
2019-05-23T11:32:20.492Z,8.10
2019-05-23T11:34:51.421Z,7.67
2019-05-23T11:37:22.782Z,7.03
2019-05-23T11:39:54.415Z,7.42
2019-05-23T11:42:27.454Z,8.33
2019-05-23T11:44:59.379Z,8.40
2019-05-23T11:47:33.261Z,9.38
2019-05-23T11:50:06.568Z,8.23
2019-05-23T11:52:38.537Z,8.90
2019-05-23T11:55:09.974Z,8.50
2019-05-23T11:57:41.665Z,9.20
2019-05-23T12:00:16.938Z,9.60
2019-05-23T12:02:57.374Z,8.83
2019-05-23T12:05:37.115Z,8.00
2019-05-23T12:08:13.322Z,8.55
2019-05-23T12:10:45.294Z,10.03
2019-05-23T12:13:16.660Z,8.03
2019-05-23T12:15:49.738Z,8.50
2019-05-23T12:18:22.465Z,8.78
2019-05-23T12:20:55.235Z,8.18
2019-05-23T12:23:26.643Z,8.68
2019-05-23T12:25:59.843Z,8.33
2019-05-23T12:28:31.606Z,8.38
2019-05-23T12:31:03.381Z,8.73
2019-05-23T12:33:36.821Z,9.50
2019-05-23T12:36:12.202Z,8.68
2019-05-23T12:39:02.194Z,8.48
2019-05-23T12:41:37.325Z,7.97
2019-05-23T12:44:09.180Z,8.40
2019-05-23T12:46:40.839Z,7.58
2019-05-23T12:49:16.191Z,6.70
2019-05-23T12:51:47.735Z,6.72
2019-05-23T12:54:20.111Z,6.72
2019-05-23T12:57:03.150Z,6.25
2019-05-23T12:59:35.319Z,5.92
2019-05-23T13:02:09.450Z,6.40
2019-05-23T13:04:40.776Z,5.62
2019-05-23T13:07:12.618Z,5.62
2019-05-23T13:09:48.081Z,5.47
2019-05-23T13:12:19.532Z,6.47
2019-05-23T13:14:53.527Z,6.12
2019-05-23T13:17:23.920Z,6.08
2019-05-23T13:19:57.256Z,5.72
2019-05-23T13:22:28.685Z,5.60
2019-05-23T13:25:02.191Z,6.50
2019-05-23T13:27:34.036Z,6.00
2019-05-23T13:30:08.563Z,7.62
2019-05-23T13:32:40.428Z,7.50
2019-05-23T13:35:11.685Z,7.03
2019-05-23T13:37:52.898Z,15.28
2019-05-23T13:40:16.101Z,8.40
2019-05-23T13:42:48.073Z,7.40
2019-05-23T13:45:20.068Z,6.20
2019-05-23T13:47:53.688Z,6.28
2019-05-23T13:50:25.958Z,5.85
2019-05-23T13:52:58.883Z,5.97
2019-05-23T13:55:31.530Z,6.08
2019-05-23T13:58:06.436Z,7.55
2019-05-23T14:00:39.375Z,6.10
2019-05-23T14:03:12.360Z,6.47
2019-05-23T14:05:45.785Z,6.70
2019-05-23T14:08:19.295Z,6.85
2019-05-23T14:10:50.119Z,6.05
2019-05-23T14:13:22.016Z,6.87
2019-05-23T14:15:54.852Z,6.72
2019-05-23T14:18:27.795Z,6.30
2019-05-23T14:20:59.306Z,7.22
2019-05-23T14:23:32.978Z,7.15
2019-05-23T14:26:05.181Z,5.70
2019-05-23T14:28:37.291Z,6.60
2019-05-23T14:31:10.869Z,6.55
2019-05-23T14:33:56.584Z,6.75
2019-05-23T14:36:33.275Z,6.25
2019-05-23T14:39:08.646Z,6.45
2019-05-23T14:41:51.577Z,6.50
2019-05-23T14:44:23.764Z,6.58
2019-05-23T14:47:06.519Z,7.20
2019-05-23T14:49:58.629Z,6.62
2019-05-23T14:52:32.665Z,6.53
2019-05-23T14:55:10.490Z,14.05
2019-05-23T14:57:42.952Z,6.58
2019-05-23T15:00:15.117Z,7.00
2019-05-23T15:02:47.299Z,6.33
2019-05-23T15:05:20.366Z,6.40
2019-05-23T15:07:52.943Z,6.42
2019-05-23T15:10:26.133Z,6.15
2019-05-23T15:12:58.420Z,6.17
2019-05-23T15:15:30.995Z,6.67
2019-05-23T15:18:03.026Z,6.17
2019-05-23T15:20:35.622Z,6.17
2019-05-23T15:23:07.882Z,5.80
2019-05-23T15:25:40.672Z,5.65
2019-05-23T15:28:12.961Z,5.85
2019-05-23T15:30:45.109Z,5.97
2019-05-23T15:33:18.400Z,6.50
2019-05-23T15:35:51.419Z,9.23
2019-05-23T15:38:26.015Z,6.17
2019-05-23T15:40:59.826Z,4.92
2019-05-23T15:43:31.984Z,6.22
2019-05-23T15:46:07.177Z,5.47
2019-05-23T15:48:39.685Z,6.90
2019-05-23T15:51:15.040Z,8.50
2019-05-23T15:53:48.744Z,6.25
2019-05-23T15:56:28.044Z,7.17
2019-05-23T15:58:58.112Z,6.57
2019-05-23T16:01:37.915Z,7.40
2019-05-23T16:04:13.177Z,10.00
2019-05-23T16:06:45.835Z,7.60
2019-05-23T16:09:29.269Z,7.37
2019-05-23T16:11:54.882Z,6.90
2019-05-23T16:14:26.939Z,7.25
2019-05-23T16:16:59.447Z,7.28
2019-05-23T16:19:31.585Z,7.22
2019-05-23T16:22:08.798Z,7.55
2019-05-23T16:24:41.474Z,8.08
2019-05-23T16:27:13.535Z,8.48
2019-05-23T16:29:45.884Z,8.48
2019-05-23T16:32:18.072Z,8.43
2019-05-23T16:34:50.139Z,7.65
2019-05-23T16:37:25.505Z,13.28
2019-05-23T16:39:59.502Z,7.60
2019-05-23T16:42:31.853Z,8.63
2019-05-23T16:45:07.394Z,8.03
2019-05-23T16:47:39.475Z,8.58
2019-05-23T16:50:12.242Z,8.70
2019-05-23T16:52:44.525Z,7.67
2019-05-23T16:55:18.436Z,8.78
2019-05-23T16:57:55.302Z,10.70
2019-05-23T17:00:45.547Z,9.78
2019-05-23T17:03:19.620Z,8.75
2019-05-23T17:06:03.249Z,9.50
2019-05-23T17:08:52.773Z,10.30
2019-05-23T17:11:36.246Z,11.03
2019-05-23T17:14:16.825Z,11.85
2019-05-23T17:17:07.405Z,12.65
2019-05-23T17:19:50.485Z,16.48
2019-05-23T17:22:39.199Z,15.25
2019-05-23T17:25:27.111Z,16.07
2019-05-23T17:28:05.666Z,15.68
2019-05-23T17:30:53.894Z,16.35
2019-05-23T17:33:28.119Z,16.70
2019-05-23T17:36:02.869Z,17.10
2019-05-23T17:38:35.429Z,21.73
2019-05-23T17:41:10.233Z,19.17
2019-05-23T17:43:45.688Z,18.77
2019-05-23T17:46:18.050Z,19.07
2019-05-23T17:48:50.943Z,19.75
2019-05-23T17:51:24.033Z,21.95
2019-05-23T17:53:58.300Z,21.95
2019-05-23T17:56:44.462Z,21.75
2019-05-23T17:59:17.025Z,21.37
2019-05-23T18:01:49.801Z,20.45
2019-05-23T18:04:23.802Z,20.23
2019-05-23T18:06:57.455Z,20.20
2019-05-23T18:09:30.402Z,20.48
2019-05-23T18:12:04.504Z,24.15
2019-05-23T18:14:39.591Z,19.52
2019-05-23T18:17:12.226Z,18.70
2019-05-23T18:19:44.383Z,20.97
2019-05-23T18:22:17.338Z,20.37
2019-05-23T18:24:49.333Z,20.12
2019-05-23T18:27:22.210Z,20.05
2019-05-23T18:29:54.939Z,22.37
2019-05-23T18:32:28.507Z,22.05
2019-05-23T18:35:00.879Z,21.57
2019-05-23T18:37:33.671Z,22.35
2019-05-23T18:40:08.597Z,21.12
2019-05-23T18:42:40.869Z,22.48
2019-05-23T18:45:13.293Z,21.68
2019-05-23T18:47:46.104Z,20.50
2019-05-23T18:50:19.008Z,22.27
2019-05-23T18:52:52.082Z,22.10
2019-05-23T18:55:25.390Z,21.80
2019-05-23T18:57:57.682Z,21.57
2019-05-23T19:00:54.536Z,20.62
2019-05-23T19:03:28.264Z,20.75
2019-05-23T19:06:00.469Z,21.33
2019-05-23T19:08:32.944Z,20.48
2019-05-23T19:11:20.387Z,20.97
2019-05-23T19:13:42.387Z,19.37
2019-05-23T19:16:16.351Z,19.00
2019-05-23T19:18:53.755Z,17.77
2019-05-23T19:21:28.653Z,19.45
2019-05-23T19:24:04.966Z,18.52
2019-05-23T19:26:40.182Z,23.18
2019-05-23T19:29:13.084Z,16.80
2019-05-23T19:31:45.216Z,17.73
2019-05-23T19:34:18.277Z,18.23
2019-05-23T19:36:51.663Z,18.23
2019-05-23T19:39:25.267Z,17.62
2019-05-23T19:41:58.354Z,17.30
2019-05-23T19:44:30.933Z,16.17
2019-05-23T19:47:03.307Z,17.70
2019-05-23T19:49:36.393Z,17.62
2019-05-23T19:52:08.969Z,18.67
2019-05-23T19:54:42.021Z,16.32
2019-05-23T19:57:14.837Z,17.20
2019-05-23T19:59:47.266Z,18.15
2019-05-23T20:02:21.224Z,18.98
2019-05-23T20:05:07.407Z,18.67
2019-05-23T20:07:39.514Z,17.87
2019-05-23T20:10:20.754Z,17.45
2019-05-23T20:12:53.550Z,17.80
2019-05-23T20:15:26.414Z,18.92
2019-05-23T20:18:00.554Z,17.73
2019-05-23T20:20:37.409Z,16.97
2019-05-23T20:23:10.406Z,17.05
2019-05-23T20:25:44.808Z,17.37
2019-05-23T20:28:20.001Z,16.62
2019-05-23T20:30:53.651Z,15.93
2019-05-23T20:33:25.742Z,16.30
2019-05-23T20:35:58.934Z,16.10
2019-05-23T20:38:31.606Z,16.35
2019-05-23T20:41:04.293Z,16.37
2019-05-23T20:43:37.921Z,15.38
2019-05-23T20:46:11.277Z,14.95
2019-05-23T20:48:44.067Z,16.10
2019-05-23T20:51:16.558Z,16.00
2019-05-23T20:53:48.886Z,14.63
2019-05-23T20:56:21.580Z,14.90
2019-05-23T20:58:55.033Z,14.03
2019-05-23T21:01:28.979Z,16.95
2019-05-23T21:04:01.348Z,13.53
2019-05-23T21:06:34.267Z,14.60
2019-05-23T21:09:08.345Z,14.40
2019-05-23T21:11:40.761Z,12.95
2019-05-23T21:14:14.806Z,13.72
2019-05-23T21:16:46.804Z,13.00
2019-05-23T21:19:19.100Z,13.78
2019-05-23T21:21:51.773Z,12.15
2019-05-23T21:24:26.217Z,14.05
2019-05-23T21:27:00.193Z,14.38
2019-05-23T21:29:34.737Z,13.85
2019-05-23T21:32:07.287Z,13.65
2019-05-23T21:34:40.295Z,12.78
2019-05-23T21:37:13.065Z,11.88
2019-05-23T21:39:45.729Z,12.60
2019-05-23T21:42:18.076Z,12.60
2019-05-23T21:44:52.335Z,13.68
2019-05-23T21:47:24.828Z,13.22
2019-05-23T21:49:56.952Z,12.60
2019-05-23T21:52:29.246Z,13.30
2019-05-23T21:55:01.163Z,13.53
2019-05-23T21:57:35.900Z,12.85
2019-05-23T22:00:12.337Z,13.38
2019-05-23T22:02:47.676Z,12.43
2019-05-23T22:05:20.375Z,12.53
2019-05-23T22:07:52.541Z,12.95
2019-05-23T22:10:24.860Z,12.60
2019-05-23T22:13:04.405Z,12.55
2019-05-23T22:15:35.849Z,12.93
2019-05-23T22:18:08.014Z,13.15
2019-05-23T22:20:40.885Z,12.65
2019-05-23T22:23:13.341Z,13.75
2019-05-23T22:25:45.522Z,13.60
2019-05-23T22:28:17.785Z,13.65
2019-05-23T22:30:50.945Z,12.40
2019-05-23T22:33:26.724Z,13.10
2019-05-23T22:36:00.647Z,12.60
2019-05-23T22:38:33.235Z,12.78
2019-05-23T22:41:18.620Z,13.22
2019-05-23T22:43:51.063Z,13.03
2019-05-23T22:46:24.987Z,12.40
2019-05-23T22:48:58.577Z,12.05
2019-05-23T22:51:31.601Z,13.20
2019-05-23T22:54:05.367Z,12.37
2019-05-23T22:56:38.246Z,13.18
2019-05-23T22:59:10.423Z,12.80
2019-05-23T23:01:44.380Z,12.68
2019-05-23T23:04:16.988Z,13.03
2019-05-23T23:06:51.339Z,14.07
2019-05-23T23:09:23.400Z,14.03
2019-05-23T23:11:55.422Z,13.70
2019-05-23T23:14:27.475Z,13.83
2019-05-23T23:16:59.569Z,14.13
2019-05-23T23:19:31.936Z,13.22
2019-05-23T23:22:04.580Z,13.62
2019-05-23T23:24:37.655Z,13.88
2019-05-23T23:27:09.896Z,13.62
2019-05-23T23:29:42.198Z,14.18
2019-05-23T23:32:15.661Z,14.28
2019-05-23T23:34:47.743Z,14.63
2019-05-23T23:37:19.836Z,16.12
2019-05-23T23:39:52.079Z,17.98
2019-05-23T23:42:24.018Z,16.32
2019-05-23T23:45:14.180Z,17.20
2019-05-23T23:48:04.709Z,15.48
2019-05-23T23:50:55.107Z,16.30
2019-05-23T23:53:45.506Z,16.15
2019-05-23T23:56:35.359Z,15.15
2019-05-23T23:59:06.953Z,15.40
